Time;durP1;ratioP1;P1;durP2;ratioP2;P2;SDS_P1;SDS_P2;PMS_P1;PMS_P2;Temp;Humidity;BMP_temperature;BMP_pressure;BME280_temperature;BME280_humidity;BME280_pressure;Samples;Min_cycle;Max_cycle;Signal;HPM_P1;HPM_P2
2021/12/27 00:00:22;;;;;;;16.10;10.93;;;10.30;99.90;;;;;;6312111;22;20222;-85
2021/12/27 00:02:50;;;;;;;17.57;11.10;;;10.30;99.90;;;;;;6311896;22;20210;-85
2021/12/27 00:05:16;;;;;;;20.13;11.10;;;10.40;99.90;;;;;;6311692;22;20240;-85
2021/12/27 00:07:44;;;;;;;19.63;11.37;;;10.40;99.90;;;;;;6312226;22;20141;-85
2021/12/27 00:10:10;;;;;;;18.13;11.10;;;10.30;99.90;;;;;;6312055;22;20526;-85
2021/12/27 00:12:36;;;;;;;19.10;11.30;;;10.40;99.90;;;;;;6312205;22;20141;-85
2021/12/27 00:15:02;;;;;;;18.60;11.40;;;10.40;99.90;;;;;;6311702;22;20514;-85
2021/12/27 00:17:27;;;;;;;18.17;11.87;;;10.40;99.90;;;;;;6311776;22;20156;-85
2021/12/27 00:19:55;;;;;;;17.23;10.43;;;10.50;99.90;;;;;;6311937;22;20164;-85
2021/12/27 00:22:21;;;;;;;18.57;10.57;;;10.40;99.90;;;;;;6311442;22;20157;-85
2021/12/27 00:24:47;;;;;;;18.30;11.13;;;10.40;99.90;;;;;;6312225;22;20213;-85
2021/12/27 00:27:14;;;;;;;15.00;10.57;;;10.30;99.90;;;;;;6311614;22;20159;-85
2021/12/27 00:29:40;;;;;;;18.53;11.90;;;10.40;99.90;;;;;;6312208;22;20188;-85
2021/12/27 00:32:06;;;;;;;21.17;11.60;;;10.40;99.90;;;;;;6311438;22;20200;-85
2021/12/27 00:34:32;;;;;;;20.40;11.83;;;10.40;99.90;;;;;;6311788;22;20149;-85
2021/12/27 00:36:57;;;;;;;20.80;12.73;;;10.60;99.90;;;;;;6311722;22;20178;-85
2021/12/27 00:39:23;;;;;;;20.07;11.70;;;10.50;99.90;;;;;;6312025;22;20574;-85
2021/12/27 00:41:48;;;;;;;18.63;11.73;;;10.50;99.90;;;;;;6311669;22;20157;-85
2021/12/27 00:44:15;;;;;;;19.17;12.23;;;10.50;99.90;;;;;;6311336;22;20168;-85
2021/12/27 00:46:40;;;;;;;20.80;12.20;;;10.50;99.90;;;;;;6311699;22;20141;-84
2021/12/27 00:49:06;;;;;;;23.63;12.83;;;10.50;99.90;;;;;;6311560;22;20149;-85
2021/12/27 00:51:32;;;;;;;22.30;12.40;;;10.40;99.90;;;;;;6311217;22;20506;-85
2021/12/27 00:53:58;;;;;;;22.00;13.60;;;10.50;99.90;;;;;;6311924;22;20182;-85
2021/12/27 00:56:24;;;;;;;22.60;13.10;;;10.50;99.90;;;;;;6311628;22;20153;-85
2021/12/27 00:58:50;;;;;;;24.40;14.30;;;10.40;99.90;;;;;;6311954;22;20480;-85
2021/12/27 01:01:16;;;;;;;23.60;12.97;;;10.30;99.90;;;;;;6339161;22;20136;-85
2021/12/27 01:03:41;;;;;;;22.63;12.17;;;10.30;99.90;;;;;;6311418;22;20145;-85
2021/12/27 01:06:07;;;;;;;21.93;12.50;;;10.70;99.90;;;;;;6311557;22;20624;-85
2021/12/27 01:08:33;;;;;;;22.03;13.03;;;10.70;99.90;;;;;;6311591;22;20164;-85
2021/12/27 01:11:13;;;;;;;24.07;12.83;;;10.60;99.90;;;;;;6311284;22;20181;-85
2021/12/27 01:13:46;;;;;;;25.80;13.00;;;10.80;99.90;;;;;;6311555;22;20588;-85
2021/12/27 01:16:14;;;;;;;21.23;12.90;;;10.70;99.90;;;;;;6310749;22;20149;-84
2021/12/27 01:18:48;;;;;;;22.63;13.47;;;10.60;99.90;;;;;;6311338;22;20145;-85
2021/12/27 01:21:16;;;;;;;23.40;13.57;;;10.50;99.90;;;;;;6311214;22;20490;-86
2021/12/27 01:23:42;;;;;;;20.40;13.03;;;10.50;99.90;;;;;;6311444;22;20175;-85
2021/12/27 01:26:08;;;;;;;23.53;14.20;;;10.60;99.90;;;;;;6311312;22;20574;-84
2021/12/27 01:28:34;;;;;;;27.27;14.47;;;10.60;99.90;;;;;;6310979;22;20153;-83
2021/12/27 01:31:00;;;;;;;24.53;13.67;;;10.60;99.90;;;;;;6310954;22;20193;-84
2021/12/27 01:33:26;;;;;;;23.33;14.67;;;10.50;99.90;;;;;;6311170;22;20633;-85
2021/12/27 01:35:53;;;;;;;28.57;15.10;;;10.40;99.90;;;;;;6310964;22;20145;-84
2021/12/27 01:38:19;;;;;;;29.30;14.77;;;10.50;99.90;;;;;;6311520;22;20541;-84
2021/12/27 01:40:48;;;;;;;22.67;14.07;;;10.50;99.90;;;;;;6311251;22;20141;-84
2021/12/27 01:43:24;;;;;;;27.70;15.27;;;10.50;99.90;;;;;;6311393;22;20148;-84
2021/12/27 01:46:00;;;;;;;26.90;14.93;;;10.50;99.90;;;;;;6311518;22;20149;-84
2021/12/27 01:48:31;;;;;;;25.10;14.47;;;10.50;99.90;;;;;;6310957;22;20241;-84
2021/12/27 01:51:00;;;;;;;28.93;15.10;;;10.30;99.90;;;;;;6310800;22;20196;-85
2021/12/27 01:53:29;;;;;;;28.03;15.83;;;10.40;99.90;;;;;;6311438;22;20141;-85
2021/12/27 01:55:55;;;;;;;26.63;15.13;;;10.40;99.90;;;;;;6311001;22;20228;-85
2021/12/27 01:58:23;;;;;;;27.30;15.47;;;10.50;99.90;;;;;;6311109;22;20477;-83
2021/12/27 02:00:51;;;;;;;30.10;14.70;;;10.50;99.90;;;;;;6311385;22;20140;-85
2021/12/27 02:03:19;;;;;;;24.23;14.73;;;10.60;99.90;;;;;;6310879;22;20157;-85
2021/12/27 02:05:45;;;;;;;26.87;14.43;;;10.70;99.90;;;;;;6311179;22;20520;-85
2021/12/27 02:08:11;;;;;;;27.07;14.17;;;10.60;99.90;;;;;;6311268;22;20145;-84
2021/12/27 02:10:38;;;;;;;25.57;14.70;;;10.60;99.90;;;;;;6311014;22;20639;-85
2021/12/27 02:13:04;;;;;;;29.87;15.13;;;10.70;99.90;;;;;;6311008;22;20224;-85
2021/12/27 02:15:30;;;;;;;26.90;14.40;;;10.70;99.90;;;;;;6311152;22;20148;-85
2021/12/27 02:17:56;;;;;;;24.27;14.43;;;10.70;99.90;;;;;;6311403;22;20179;-85
2021/12/27 02:20:28;;;;;;;23.97;13.83;;;10.70;99.90;;;;;;6310899;22;20242;-85
2021/12/27 02:22:59;;;;;;;30.03;14.77;;;10.70;99.90;;;;;;6311389;22;20149;-85
2021/12/27 02:25:27;;;;;;;28.03;15.10;;;10.70;99.90;;;;;;6311540;22;20165;-85
2021/12/27 02:27:52;;;;;;;28.13;15.93;;;10.70;99.90;;;;;;6311241;22;20668;-86
2021/12/27 02:30:19;;;;;;;30.63;15.60;;;10.60;99.90;;;;;;6310792;22;20187;-86
2021/12/27 02:32:57;;;;;;;29.93;16.67;;;10.60;99.90;;;;;;6311338;22;20148;-85
2021/12/27 02:35:24;;;;;;;34.80;16.37;;;10.70;99.90;;;;;;6311392;22;20173;-85
2021/12/27 02:37:52;;;;;;;33.27;17.10;;;10.60;99.90;;;;;;6311452;22;20155;-85
2021/12/27 02:40:19;;;;;;;32.60;16.73;;;10.50;99.90;;;;;;6310767;22;20149;-85
2021/12/27 02:43:16;;;;;;;34.87;16.67;;;10.60;99.90;;;;;;6312560;22;20254;-85
2021/12/27 02:45:50;;;;;;;36.43;17.80;;;10.60;99.90;;;;;;6294552;22;20160;-85
2021/12/27 02:48:19;;;;;;;34.60;16.67;;;10.40;99.90;;;;;;6312261;22;20145;-85
2021/12/27 02:50:46;;;;;;;35.73;15.87;;;10.40;99.90;;;;;;6312694;22;20189;-85
2021/12/27 02:53:12;;;;;;;31.20;17.60;;;10.40;99.90;;;;;;6312618;22;20176;-85
2021/12/27 02:55:39;;;;;;;30.80;16.83;;;10.40;99.90;;;;;;6312611;22;20649;-85
2021/12/27 02:58:05;;;;;;;30.90;16.13;;;10.30;99.90;;;;;;6312370;22;20146;-85
2021/12/27 03:00:39;;;;;;;34.40;17.47;;;10.50;99.90;;;;;;6312076;22;20562;-85
2021/12/27 03:03:05;;;;;;;32.27;16.57;;;10.60;99.90;;;;;;6339653;22;20143;-84
2021/12/27 03:05:32;;;;;;;29.07;16.10;;;10.60;99.90;;;;;;6312312;22;20216;-85
2021/12/27 03:07:58;;;;;;;33.87;17.00;;;10.60;99.90;;;;;;6312352;22;20152;-85
2021/12/27 03:10:28;;;;;;;37.40;16.77;;;10.50;99.90;;;;;;6312240;22;20208;-85
2021/12/27 03:12:55;;;;;;;31.90;17.70;;;10.40;99.90;;;;;;6312901;22;20153;-85
2021/12/27 03:15:23;;;;;;;33.17;15.90;;;10.50;99.90;;;;;;6312276;22;20142;-85
2021/12/27 03:17:51;;;;;;;29.47;15.10;;;10.50;99.90;;;;;;6311936;22;20643;-85
2021/12/27 03:20:21;;;;;;;34.40;16.77;;;10.50;99.90;;;;;;6339452;22;20228;-85
2021/12/27 03:22:46;;;;;;;39.37;17.23;;;10.40;99.90;;;;;;6312358;22;20153;-86
2021/12/27 03:25:17;;;;;;;31.10;16.17;;;10.50;99.90;;;;;;6311691;22;20573;-85
2021/12/27 03:27:43;;;;;;;30.43;16.37;;;10.50;99.90;;;;;;6312302;22;20190;-85
2021/12/27 03:30:12;;;;;;;35.50;15.83;;;10.50;99.90;;;;;;6339373;22;20620;-85
2021/12/27 03:32:39;;;;;;;38.37;16.40;;;10.50;99.90;;;;;;6312535;22;20141;-85
2021/12/27 03:35:13;;;;;;;33.37;17.03;;;10.40;99.90;;;;;;6311925;22;20486;-85
2021/12/27 03:37:45;;;;;;;33.67;16.70;;;10.50;99.90;;;;;;6312154;22;20138;-85
2021/12/27 03:40:13;;;;;;;37.80;17.57;;;10.40;99.90;;;;;;6311959;22;20157;-85
2021/12/27 03:42:39;;;;;;;36.30;16.43;;;10.30;99.90;;;;;;6312519;22;20208;-85
2021/12/27 03:45:08;;;;;;;37.93;16.23;;;10.30;99.90;;;;;;6311801;22;20237;-84
2021/12/27 03:47:33;;;;;;;35.00;17.17;;;10.30;99.90;;;;;;6312085;22;20170;-85
2021/12/27 03:49:59;;;;;;;32.90;16.03;;;10.30;99.90;;;;;;6312165;22;20255;-85
2021/12/27 03:52:25;;;;;;;35.17;15.97;;;10.20;99.90;;;;;;6311815;22;20147;-85
2021/12/27 03:54:51;;;;;;;38.00;16.73;;;10.20;99.90;;;;;;6311712;22;20199;-85
2021/12/27 03:57:17;;;;;;;34.70;15.80;;;10.10;99.90;;;;;;6312235;22;20150;-85
2021/12/27 04:02:08;;;;;;;35.90;16.33;;;10.10;99.90;;;;;;6349876;22;20146;-85
2021/12/27 04:04:34;;;;;;;34.17;16.03;;;10.00;99.90;;;;;;6312320;22;20562;-85
2021/12/27 04:07:00;;;;;;;34.70;15.70;;;10.00;99.90;;;;;;6312151;22;20155;-85
2021/12/27 04:09:26;;;;;;;29.17;14.37;;;10.00;99.90;;;;;;6312247;22;20147;-85
2021/12/27 04:11:52;;;;;;;36.73;15.47;;;10.00;99.90;;;;;;6312131;22;20522;-85
2021/12/27 04:14:18;;;;;;;35.17;15.30;;;9.90;99.90;;;;;;6311777;22;20140;-85
2021/12/27 04:16:43;;;;;;;36.63;14.37;;;9.90;99.90;;;;;;6311765;22;20195;-85
2021/12/27 04:19:09;;;;;;;30.07;13.77;;;9.80;99.90;;;;;;6311556;22;20151;-85
2021/12/27 04:21:35;;;;;;;30.23;13.10;;;9.80;99.90;;;;;;6311657;22;20245;-85
2021/12/27 04:24:01;;;;;;;28.17;12.50;;;9.90;99.90;;;;;;6311931;22;20225;-85
2021/12/27 04:26:26;;;;;;;27.43;12.37;;;10.00;99.90;;;;;;6311804;22;20153;-85
2021/12/27 04:28:52;;;;;;;29.00;12.53;;;10.00;99.90;;;;;;6311649;22;20200;-84
2021/12/27 04:31:18;;;;;;;23.93;11.33;;;10.00;99.90;;;;;;6311544;22;20532;-85
2021/12/27 04:33:44;;;;;;;22.63;11.07;;;10.00;99.90;;;;;;6312226;22;20141;-84
2021/12/27 04:36:10;;;;;;;22.20;11.30;;;9.90;99.90;;;;;;6311484;22;20146;-84
2021/12/27 04:38:36;;;;;;;28.90;12.00;;;9.80;99.90;;;;;;6311971;22;20153;-85
2021/12/27 04:41:03;;;;;;;22.13;11.53;;;9.90;99.90;;;;;;6311336;22;20660;-85
2021/12/27 04:43:29;;;;;;;24.43;10.43;;;9.90;99.90;;;;;;6311471;22;20197;-85
2021/12/27 04:45:55;;;;;;;22.53;10.60;;;10.00;99.90;;;;;;6311907;22;20153;-85
2021/12/27 04:48:23;;;;;;;25.03;10.57;;;10.00;99.90;;;;;;6311564;22;20148;-84
2021/12/27 04:50:49;;;;;;;25.03;11.33;;;9.90;99.90;;;;;;6311518;22;20215;-85
2021/12/27 04:53:16;;;;;;;20.97;10.07;;;10.00;99.90;;;;;;6311802;22;20562;-85
2021/12/27 04:55:41;;;;;;;22.57;10.17;;;10.00;99.90;;;;;;6311519;22;20163;-85
2021/12/27 04:58:09;;;;;;;20.83;10.30;;;9.90;99.90;;;;;;6311474;22;20172;-84
2021/12/27 05:00:35;;;;;;;22.60;10.27;;;9.90;99.90;;;;;;6311783;22;20231;-85
2021/12/27 05:03:00;;;;;;;17.10;9.70;;;9.90;99.90;;;;;;6311746;22;20826;-85
2021/12/27 05:05:26;;;;;;;25.03;10.40;;;9.90;99.90;;;;;;6311631;22;20229;-85
2021/12/27 05:07:52;;;;;;;19.97;9.70;;;9.90;99.90;;;;;;6311429;22;20137;-85
2021/12/27 05:10:18;;;;;;;19.37;10.07;;;10.00;99.90;;;;;;6311576;22;20227;-85
2021/12/27 05:12:44;;;;;;;24.97;9.30;;;10.00;99.90;;;;;;6310940;22;20212;-85
2021/12/27 05:15:10;;;;;;;24.20;11.30;;;10.10;99.90;;;;;;6311715;22;20149;-85
2021/12/27 05:17:36;;;;;;;22.23;10.93;;;10.10;99.90;;;;;;6311772;22;20150;-85
2021/12/27 05:20:05;;;;;;;20.97;10.63;;;10.20;99.90;;;;;;6311110;22;20172;-85
2021/12/27 05:22:31;;;;;;;22.67;10.10;;;10.20;99.90;;;;;;6311103;22;20651;-85
2021/12/27 05:24:57;;;;;;;23.13;10.63;;;10.20;99.90;;;;;;6311461;22;20172;-85
2021/12/27 05:27:23;;;;;;;25.07;10.47;;;10.30;99.90;;;;;;6311267;22;20146;-85
2021/12/27 05:29:49;;;;;;;23.20;11.30;;;10.20;99.90;;;;;;6310940;22;20265;-86
2021/12/27 05:32:15;;;;;;;21.80;10.60;;;10.10;99.90;;;;;;6311063;22;20159;-85
2021/12/27 05:34:40;;;;;;;24.60;10.63;;;10.00;99.90;;;;;;6311365;22;20145;-85
2021/12/27 05:37:06;;;;;;;23.07;10.50;;;9.90;99.90;;;;;;6311561;22;20149;-85
2021/12/27 05:39:33;;;;;;;21.97;10.60;;;10.00;99.90;;;;;;6311677;22;20475;-84
2021/12/27 05:42:01;;;;;;;24.40;10.17;;;10.10;99.90;;;;;;6310748;22;20141;-85
2021/12/27 05:44:26;;;;;;;21.97;11.07;;;10.00;99.90;;;;;;6311105;22;20149;-85
2021/12/27 05:46:54;;;;;;;23.37;11.37;;;10.10;99.90;;;;;;6311269;22;20592;-85
2021/12/27 05:49:20;;;;;;;24.83;11.00;;;10.10;99.90;;;;;;6311001;22;20168;-85
2021/12/27 05:51:46;;;;;;;20.93;10.33;;;10.20;99.90;;;;;;6311172;22;20184;-87
2021/12/27 05:54:13;;;;;;;21.70;10.33;;;10.20;99.90;;;;;;6311184;22;20562;-84
2021/12/27 05:56:39;;;;;;;19.13;9.63;;;10.30;99.90;;;;;;6311190;22;20475;-85
2021/12/27 05:59:05;;;;;;;19.17;9.57;;;10.10;99.90;;;;;;6311453;22;20158;-86
2021/12/27 06:01:31;;;;;;;21.90;9.73;;;10.00;99.90;;;;;;6311348;22;20183;-85
2021/12/27 06:03:58;;;;;;;19.43;9.63;;;9.80;99.90;;;;;;6338666;22;20129;-85
2021/12/27 06:06:26;;;;;;;21.60;9.53;;;9.80;99.90;;;;;;6310985;22;20233;-85
2021/12/27 06:08:52;;;;;;;17.57;9.03;;;9.50;99.90;;;;;;6311175;22;20480;-86
2021/12/27 06:11:18;;;;;;;18.33;8.90;;;9.40;99.90;;;;;;6310791;22;20181;-85
2021/12/27 06:13:44;;;;;;;20.43;9.23;;;9.40;99.90;;;;;;6311162;22;20302;-85
2021/12/27 06:16:10;;;;;;;21.83;10.27;;;9.40;99.90;;;;;;6312205;22;20227;-85
2021/12/27 06:18:37;;;;;;;15.87;8.63;;;9.30;99.90;;;;;;6312882;22;20480;-85
